Time;durP1;ratioP1;P1;durP2;ratioP2;P2;SDS_P1;SDS_P2;PMS_P1;PMS_P2;Temp;Humidity;BMP_temperature;BMP_pressure;BME280_temperature;BME280_humidity;BME280_pressure;Samples;Min_cycle;Max_cycle;Signal;HPM_P1;HPM_P2
2023/02/16 00:01:24;;;;;;;5.07;4.50;;;;;;;4.78;54.73;96517.66;5011311;28;20207;-79
2023/02/16 00:03:53;;;;;;;7.80;4.40;;;;;;;4.77;54.78;96503.13;5019528;28;20237;-82
2023/02/16 00:06:19;;;;;;;5.17;4.13;;;;;;;4.78;54.39;96512.50;5024465;28;20191;-82
2023/02/16 00:08:46;;;;;;;6.10;4.33;;;;;;;4.80;54.74;96507.25;5026858;28;20338;-79
2023/02/16 00:14:03;;;;;;;4.73;3.63;;;;;;;4.89;53.97;96505.91;5023497;28;20214;-81
2023/02/16 00:16:28;;;;;;;5.27;3.90;;;;;;;4.89;53.96;96505.91;5019309;28;20181;-80
2023/02/16 00:18:53;;;;;;;8.33;4.60;;;;;;;4.95;53.54;96514.09;5026432;28;20201;-79
2023/02/16 00:21:19;;;;;;;5.53;3.87;;;;;;;4.99;53.14;96512.16;5027486;28;20186;-80
2023/02/16 00:23:44;;;;;;;6.33;3.87;;;;;;;4.95;53.17;96510.69;5020748;28;20282;-80
2023/02/16 00:26:21;;;;;;;4.57;3.80;;;;;;;4.96;53.48;96518.31;5017950;28;20186;-80
2023/02/16 00:28:54;;;;;;;5.47;3.70;;;;;;;4.96;53.27;96513.19;5032318;28;20662;-80
2023/02/16 00:31:25;;;;;;;5.53;3.70;;;;;;;4.92;53.24;96509.09;5032874;28;20186;-80
2023/02/16 00:33:50;;;;;;;6.67;4.03;;;;;;;4.93;53.17;96515.91;5015534;28;20724;-81
2023/02/16 00:36:16;;;;;;;7.00;4.40;;;;;;;4.90;53.25;96513.53;5011513;28;20183;-81
2023/02/16 00:38:41;;;;;;;5.97;4.40;;;;;;;4.88;53.17;96514.53;5015808;28;20197;-81
2023/02/16 00:41:49;;;;;;;5.17;3.83;;;;;;;4.89;53.66;96516.19;5027269;28;20667;-80
2023/02/16 00:43:59;;;;;;;5.70;3.83;;;;;;;4.94;53.48;96506.44;5029385;28;20225;-80
2023/02/16 00:46:24;;;;;;;6.57;3.70;;;;;;;4.94;53.21;96509.00;5025050;28;20191;-80
2023/02/16 00:48:50;;;;;;;4.70;3.90;;;;;;;4.91;53.67;96504.06;5031744;28;20192;-81
2023/02/16 00:51:15;;;;;;;6.63;3.70;;;;;;;4.83;54.02;96499.34;5019815;28;20624;-80
2023/02/16 00:53:41;;;;;;;5.13;3.87;;;;;;;4.72;54.54;96494.84;5019710;28;20223;-81
2023/02/16 00:56:08;;;;;;;4.53;3.40;;;;;;;4.63;54.83;96504.81;5013717;28;20187;-81
2023/02/16 00:58:34;;;;;;;5.97;3.70;;;;;;;4.44;56.00;96505.06;5012059;28;20194;-81
2023/02/16 01:01:05;;;;;;;5.47;4.57;;;;;;;4.33;56.30;96504.81;5029482;28;20221;-80
2023/02/16 01:03:31;;;;;;;5.47;4.40;;;;;;;4.18;56.63;96497.06;5022505;28;20207;-80
2023/02/16 01:11:25;;;;;;;4.70;3.73;;;;;;;4.01;57.44;96496.31;5024731;28;20197;-80
2023/02/16 01:13:52;;;;;;;5.00;3.70;;;;;;;3.99;57.44;96493.84;5013767;28;20309;-81
2023/02/16 01:16:20;;;;;;;4.97;3.30;;;;;;;3.96;57.76;96484.53;5019972;28;20209;-80
2023/02/16 01:18:46;;;;;;;4.87;3.20;;;;;;;3.91;57.83;96490.88;5022466;28;20562;-81
2023/02/16 01:21:11;;;;;;;6.17;3.70;;;;;;;3.91;57.84;96486.56;5032613;28;20201;-80
2023/02/16 01:23:37;;;;;;;5.60;3.80;;;;;;;3.85;58.23;96502.28;5019027;28;20216;-80
2023/02/16 01:26:04;;;;;;;4.73;3.50;;;;;;;3.80;58.79;96495.75;5023546;28;20199;-81
2023/02/16 01:28:29;;;;;;;5.90;3.73;;;;;;;3.73;59.04;96499.56;5010603;28;20236;-80
2023/02/16 01:30:54;;;;;;;5.23;3.43;;;;;;;3.67;58.94;96503.28;5022298;28;20226;-81
2023/02/16 01:33:20;;;;;;;5.03;3.93;;;;;;;3.73;58.56;96505.53;5021591;28;20263;-81
2023/02/16 01:35:46;;;;;;;5.77;3.70;;;;;;;3.67;58.45;96503.28;5017029;28;20194;-80
2023/02/16 01:38:20;;;;;;;5.87;3.73;;;;;;;3.65;59.03;96495.66;5010880;28;20251;-80
2023/02/16 01:40:51;;;;;;;7.17;4.20;;;;;;;3.57;59.57;96492.69;5019734;28;20187;-80
2023/02/16 01:43:24;;;;;;;6.23;3.70;;;;;;;3.62;59.60;96498.41;5028190;28;20223;-80
2023/02/16 01:46:01;;;;;;;6.23;4.03;;;;;;;3.67;59.32;96491.28;5017312;28;20277;-80
2023/02/16 01:48:28;;;;;;;6.20;4.07;;;;;;;3.67;59.22;96491.28;5031131;28;20241;-80
2023/02/16 01:51:18;;;;;;;6.37;4.07;;;;;;;3.71;58.95;96489.38;5021032;28;20199;-80
2023/02/16 01:53:47;;;;;;;8.30;4.77;;;;;;;3.82;58.73;96492.19;5019403;28;20248;-81
2023/02/16 01:56:21;;;;;;;5.70;3.80;;;;;;;3.80;58.53;96488.88;5023479;28;20224;-80
2023/02/16 01:58:49;;;;;;;6.30;4.10;;;;;;;3.77;59.11;96483.91;5027256;28;20248;-81
2023/02/16 02:01:35;;;;;;;5.50;4.00;;;;;;;3.75;59.07;96490.03;5031843;28;20183;-80
2023/02/16 02:06:45;;;;;;;4.87;4.37;;;;;;;3.70;59.31;96485.97;5028844;28;20617;-81
2023/02/16 02:09:24;;;;;;;7.23;4.07;;;;;;;3.73;59.35;96491.88;5032256;28;20200;-81
2023/02/16 02:11:56;;;;;;;5.60;4.17;;;;;;;3.74;59.08;96483.25;5017415;28;20174;-81
2023/02/16 02:14:26;;;;;;;5.40;4.30;;;;;;;3.72;59.25;96482.50;5010032;28;20715;-81
2023/02/16 02:16:54;;;;;;;5.40;3.97;;;;;;;3.74;59.79;96478.94;5026836;28;20229;-81
2023/02/16 02:19:20;;;;;;;6.27;4.40;;;;;;;3.73;59.67;96472.16;5021758;28;20645;-81
2023/02/16 02:24:59;;;;;;;7.23;4.60;;;;;;;3.57;60.25;96469.56;5024765;28;20264;-81
2023/02/16 02:27:27;;;;;;;7.97;4.73;;;;;;;3.51;60.62;96471.63;5030636;28;20192;-81
2023/02/16 02:30:11;;;;;;;7.83;4.07;;;;;;;3.46;61.37;96469.31;5024345;28;20192;-81
2023/02/16 02:33:04;;;;;;;7.00;4.60;;;;;;;3.45;61.57;96471.97;5024052;28;20205;-81
2023/02/16 02:35:46;;;;;;;6.93;4.43;;;;;;;3.45;61.11;96462.53;5033078;28;20189;-82
2023/02/16 02:38:18;;;;;;;7.67;5.07;;;;;;;3.44;61.25;96458.28;5035626;28;20576;-81
2023/02/16 02:40:59;;;;;;;8.90;4.57;;;;;;;3.52;61.35;96458.69;5022654;28;20195;-81
2023/02/16 02:43:47;;;;;;;10.33;5.37;;;;;;;3.72;60.02;96459.38;5037391;28;20780;-80
2023/02/16 02:46:29;;;;;;;7.63;4.67;;;;;;;3.81;60.59;96464.84;5029884;28;20198;-81
2023/02/16 02:48:54;;;;;;;8.20;4.53;;;;;;;3.85;60.25;96456.03;5033379;28;20650;-81
2023/02/16 02:51:28;;;;;;;6.87;5.30;;;;;;;3.90;59.63;96455.81;5009454;28;20206;-81
2023/02/16 03:02:16;;;;;;;7.77;4.73;;;;;;;4.17;59.01;96453.44;5030160;28;20233;-81
2023/02/16 03:04:43;;;;;;;8.60;5.83;;;;;;;4.21;58.81;96458.31;5006021;28;20232;-80
2023/02/16 03:07:09;;;;;;;7.37;5.20;;;;;;;4.27;58.17;96452.00;5017946;28;20198;-81
2023/02/16 03:09:34;;;;;;;7.20;5.70;;;;;;;4.31;58.45;96456.03;5021554;28;20187;-81
2023/02/16 03:14:47;;;;;;;8.03;5.23;;;;;;;4.42;58.08;96458.84;5025867;28;20666;-81
2023/02/16 03:31:09;;;;;;;9.07;4.87;;;;;;;4.43;57.44;96463.06;5034214;28;20178;-81
2023/02/16 03:33:35;;;;;;;7.20;5.00;;;;;;;4.40;57.60;96464.97;5023095;28;20203;-81
2023/02/16 03:36:00;;;;;;;6.47;4.97;;;;;;;4.49;56.72;96460.13;5019897;28;20196;-81
2023/02/16 03:38:26;;;;;;;8.90;5.07;;;;;;;4.52;56.95;96459.16;5012416;28;20186;-81
2023/02/16 03:40:52;;;;;;;7.17;5.27;;;;;;;4.48;56.81;96449.94;5027206;28;20276;-81
2023/02/16 03:43:23;;;;;;;6.33;5.00;;;;;;;4.45;57.44;96457.84;5019303;28;20234;-80
2023/02/16 03:45:48;;;;;;;6.50;4.97;;;;;;;4.41;57.26;96457.16;5013871;28;20185;-81
2023/02/16 03:48:13;;;;;;;8.23;5.50;;;;;;;4.41;57.24;96464.88;5011997;28;20191;-81
2023/02/16 03:50:39;;;;;;;10.37;5.63;;;;;;;4.45;56.90;96456.09;5010537;28;20186;-81
2023/02/16 03:53:07;;;;;;;7.00;5.07;;;;;;;4.45;57.02;96458.66;5021140;28;20209;-81
2023/02/16 03:55:41;;;;;;;7.27;5.10;;;;;;;4.37;57.03;96460.00;5012158;28;20613;-81
2023/02/16 03:58:08;;;;;;;8.83;5.23;;;;;;;4.29;57.68;96459.63;5019426;28;20201;-80
2023/02/16 04:00:34;;;;;;;7.60;5.83;;;;;;;4.28;57.79;96458.78;5025367;28;20912;-81
2023/02/16 04:03:00;;;;;;;7.37;5.37;;;;;;;4.26;57.33;96465.78;5017520;28;20301;-81
2023/02/16 04:05:25;;;;;;;7.87;5.03;;;;;;;4.22;58.20;96467.66;5017632;28;20198;-81
2023/02/16 04:07:51;;;;;;;8.87;6.00;;;;;;;4.24;58.22;96462.44;5015193;28;20194;-80
2023/02/16 04:10:17;;;;;;;9.10;5.47;;;;;;;4.25;58.15;96470.09;5014216;28;20222;-80
2023/02/16 04:12:42;;;;;;;8.63;6.13;;;;;;;4.23;58.46;96461.59;5022947;28;20199;-81
2023/02/16 04:15:16;;;;;;;10.93;6.57;;;;;;;4.26;58.01;96460.63;5014171;28;20191;-81
2023/02/16 04:17:41;;;;;;;10.10;6.00;;;;;;;4.21;58.00;96467.75;5016845;28;20188;-81
2023/02/16 04:20:09;;;;;;;9.13;5.33;;;;;;;4.37;58.30;96465.97;5008158;28;20286;-80
2023/02/16 04:22:34;;;;;;;8.50;6.20;;;;;;;4.33;58.25;96467.09;5014981;28;20229;-81
2023/02/16 04:24:59;;;;;;;8.57;6.10;;;;;;;4.32;58.00;96462.00;5005992;28;20191;-81
2023/02/16 04:27:24;;;;;;;9.30;5.57;;;;;;;4.39;58.19;96471.03;5008622;28;20191;-80
2023/02/16 04:29:50;;;;;;;8.97;5.77;;;;;;;4.39;57.69;96471.03;5012736;28;20196;-81
2023/02/16 04:32:15;;;;;;;9.07;5.93;;;;;;;4.35;57.80;96475.53;5018520;28;20555;-81
2023/02/16 04:34:40;;;;;;;8.77;5.97;;;;;;;4.39;57.42;96484.72;5017848;28;20634;-81
2023/02/16 04:37:06;;;;;;;11.13;5.93;;;;;;;4.39;57.59;96474.44;5029902;28;20224;-81
2023/02/16 04:39:31;;;;;;;7.57;5.33;;;;;;;4.37;57.69;96475.44;5010112;28;20186;-81
2023/02/16 04:41:57;;;;;;;8.40;5.40;;;;;;;4.35;57.57;96478.09;5011532;28;20653;-80
2023/02/16 04:44:22;;;;;;;7.50;5.37;;;;;;;4.33;57.68;96476.53;5025501;28;20210;-81
2023/02/16 04:46:47;;;;;;;11.77;5.87;;;;;;;4.23;58.25;96471.06;5025003;28;20191;-80
2023/02/16 04:49:13;;;;;;;7.03;5.03;;;;;;;4.22;58.00;96472.81;5004153;28;20186;-81
2023/02/16 04:51:38;;;;;;;8.47;5.63;;;;;;;4.21;58.35;96467.75;5018795;28;20201;-81
2023/02/16 04:54:04;;;;;;;7.80;5.80;;;;;;;4.24;57.95;96471.00;5007255;28;20229;-80
2023/02/16 04:56:30;;;;;;;10.70;5.57;;;;;;;4.26;58.00;96476.88;5017528;28;20568;-81
2023/02/16 04:58:55;;;;;;;10.53;6.03;;;;;;;4.26;58.63;96476.88;5014511;28;20185;-81
2023/02/16 05:01:22;;;;;;;11.53;7.77;;;;;;;4.16;58.80;96475.75;5028001;28;20193;-81
2023/02/16 05:03:48;;;;;;;11.33;6.77;;;;;;;4.16;58.58;96475.75;5035421;28;20190;-81
2023/02/16 05:06:13;;;;;;;7.33;6.10;;;;;;;4.12;58.96;96474.25;5038840;28;20204;-80
2023/02/16 05:08:38;;;;;;;10.47;6.70;;;;;;;4.06;59.20;96474.56;5051817;28;20174;-81
2023/02/16 05:16:32;;;;;;;9.03;5.90;;;;;;;3.82;60.46;96473.38;5041706;28;20300;-80
2023/02/16 05:18:57;;;;;;;8.33;5.97;;;;;;;3.78;60.51;96475.28;5016194;28;20200;-81
2023/02/16 05:21:31;;;;;;;8.90;5.20;;;;;;;3.72;60.67;96470.50;5006015;28;20184;-80
2023/02/16 05:24:03;;;;;;;8.03;5.87;;;;;;;3.59;61.17;96482.31;5022064;28;20210;-81
2023/02/16 05:26:28;;;;;;;7.43;5.63;;;;;;;3.45;61.91;96470.22;5028542;28;20213;-81
2023/02/16 05:28:54;;;;;;;8.93;5.67;;;;;;;3.39;62.63;96463.66;5017484;28;20662;-80
2023/02/16 05:31:20;;;;;;;10.37;6.33;;;;;;;3.33;62.63;96474.25;5030157;28;20193;-81
2023/02/16 05:33:45;;;;;;;10.87;7.87;;;;;;;3.34;63.27;96473.34;5012589;28;20213;-81
2023/02/16 05:36:10;;;;;;;8.27;6.07;;;;;;;3.27;63.37;96474.59;5018839;28;20192;-80
2023/02/16 05:38:35;;;;;;;8.63;6.13;;;;;;;3.27;63.48;96469.47;5020452;28;20200;-81
2023/02/16 05:41:01;;;;;;;9.20;6.40;;;;;;;3.22;63.46;96476.56;5034512;28;20598;-81
2023/02/16 05:43:26;;;;;;;11.07;6.53;;;;;;;3.27;63.73;96486.56;5013014;28;20288;-79
2023/02/16 05:45:51;;;;;;;9.57;6.60;;;;;;;3.32;63.36;96487.19;5011429;28;20184;-81
2023/02/16 05:48:17;;;;;;;10.57;6.90;;;;;;;3.32;63.66;96485.44;5022267;28;20197;-80
2023/02/16 05:50:42;;;;;;;9.30;6.83;;;;;;;3.29;63.60;96488.19;5008866;28;20198;-82
2023/02/16 05:53:07;;;;;;;9.83;7.00;;;;;;;3.35;63.78;96487.00;5014077;28;20221;-81
2023/02/16 05:55:33;;;;;;;8.77;6.20;;;;;;;3.34;64.00;96490.50;5036783;28;20183;-81
2023/02/16 05:57:58;;;;;;;10.63;6.77;;;;;;;3.42;63.77;96483.22;5030643;28;20186;-80
2023/02/16 06:00:23;;;;;;;9.70;7.30;;;;;;;3.44;63.68;96486.53;5016392;28;20565;-82
2023/02/16 06:02:49;;;;;;;11.03;6.83;;;;;;;3.50;63.90;96488.78;5024495;28;20206;-80
2023/02/16 06:05:14;;;;;;;9.90;6.73;;;;;;;3.68;63.82;96492.94;5037238;28;20187;-82
2023/02/16 06:07:39;;;;;;;8.97;6.90;;;;;;;3.71;63.21;96489.38;5008803;28;20179;-80
2023/02/16 06:10:05;;;;;;;10.50;7.07;;;;;;;3.91;62.80;96496.00;5026680;28;20201;-81
2023/02/16 06:12:31;;;;;;;10.93;7.03;;;;;;;3.92;62.86;96500.22;5022618;28;20542;-80
2023/02/16 06:14:57;;;;;;;9.50;6.53;;;;;;;3.88;62.78;96506.44;5019856;28;20547;-81
2023/02/16 06:17:22;;;;;;;10.67;7.13;;;;;;;3.80;63.18;96498.31;5024910;28;20198;-80
2023/02/16 06:19:47;;;;;;;8.80;6.67;;;;;;;3.82;63.22;96501.66;5017171;28;20182;-82
2023/02/16 06:22:13;;;;;;;11.07;7.37;;;;;;;3.79;63.19;96497.47;5022554;28;20582;-81
2023/02/16 06:24:38;;;;;;;11.90;7.17;;;;;;;3.77;63.77;96496.75;5022249;28;20216;-80
2023/02/16 06:27:03;;;;;;;10.97;6.83;;;;;;;3.76;63.83;96507.94;5039473;28;20186;-79
2023/02/16 06:29:29;;;;;;;12.67;7.07;;;;;;;3.75;63.62;96501.13;5029915;28;20190;-79
2023/02/16 06:31:54;;;;;;;8.97;6.17;;;;;;;3.82;63.25;96504.22;5026776;28;20628;-80
2023/02/16 06:34:19;;;;;;;7.63;6.50;;;;;;;3.70;63.69;96497.97;5020505;28;20309;-80
2023/02/16 06:36:44;;;;;;;8.90;6.50;;;;;;;3.61;64.15;96498.47;5030233;28;20254;-80
2023/02/16 06:39:10;;;;;;;11.43;7.83;;;;;;;3.56;64.78;96501.31;5010802;28;20202;-80
2023/02/16 06:41:39;;;;;;;14.33;9.53;;;;;;;3.47;65.07;96506.09;5031283;28;20220;-80
2023/02/16 06:44:07;;;;;;;15.53;9.53;;;;;;;3.47;65.23;96508.66;5034987;28;20211;-79
2023/02/16 06:46:32;;;;;;;16.87;9.97;;;;;;;3.48;65.42;96506.00;5024357;28;20203;-80
2023/02/16 06:48:58;;;;;;;10.00;7.40;;;;;;;3.46;65.93;96515.53;5027323;28;20206;-80
2023/02/16 06:51:23;;;;;;;11.63;7.97;;;;;;;3.49;65.84;96512.81;5032657;28;20199;-80
2023/02/16 06:53:48;;;;;;;12.27;6.93;;;;;;;3.51;65.68;96512.72;5036709;28;20313;-81
2023/02/16 06:56:14;;;;;;;12.77;7.27;;;;;;;3.50;65.81;96511.88;5039519;28;20237;-80
2023/02/16 06:58:39;;;;;;;8.73;6.77;;;;;;;3.54;66.03;96515.97;5021338;28;20183;-80
2023/02/16 07:01:04;;;;;;;10.13;6.90;;;;;;;3.60;65.72;96513.06;5033563;28;20713;-80
2023/02/16 07:03:30;;;;;;;9.80;6.73;;;;;;;3.63;65.64;96506.94;5026184;28;20216;-80
2023/02/16 07:05:55;;;;;;;9.87;7.00;;;;;;;3.65;65.70;96516.22;5023631;28;20183;-80
2023/02/16 07:08:20;;;;;;;11.73;7.23;;;;;;;3.70;65.70;96509.06;5025111;28;20574;-80
2023/02/16 07:10:46;;;;;;;9.57;6.30;;;;;;;3.64;65.91;96518.88;5037145;28;20183;-80
2023/02/16 07:13:11;;;;;;;10.50;7.30;;;;;;;3.63;66.13;96517.22;5029794;28;20225;-80
2023/02/16 07:15:37;;;;;;;9.50;7.27;;;;;;;3.74;65.80;96514.91;5034488;28;20189;-79
2023/02/16 07:18:02;;;;;;;11.97;7.57;;;;;;;3.77;66.20;96522.44;5041448;28;20194;-79
2023/02/16 07:20:27;;;;;;;11.33;7.57;;;;;;;3.81;65.90;96521.38;5032683;28;20713;-79
2023/02/16 07:22:53;;;;;;;10.07;7.00;;;;;;;3.87;65.87;96515.06;5048069;28;20583;-80
2023/02/16 07:25:18;;;;;;;12.53;8.30;;;;;;;3.93;65.55;96525.00;5036917;28;20183;-79
2023/02/16 07:27:44;;;;;;;13.27;7.90;;;;;;;3.94;65.65;96519.78;5044198;28;20197;-80
2023/02/16 07:30:09;;;;;;;13.37;8.73;;;;;;;4.02;65.68;96523.69;5031942;28;20194;-79
2023/02/16 07:32:35;;;;;;;11.87;8.13;;;;;;;4.15;65.32;96520.38;5026604;28;20237;-80
2023/02/16 07:35:01;;;;;;;8.90;7.57;;;;;;;4.25;64.96;96525.81;5045558;28;20736;-79
2023/02/16 07:37:26;;;;;;;8.50;6.87;;;;;;;4.23;65.28;96520.75;5016851;28;20191;-80
2023/02/16 07:39:52;;;;;;;10.10;7.40;;;;;;;4.33;64.31;96525.38;5032161;28;20190;-80
2023/02/16 07:42:18;;;;;;;8.73;7.00;;;;;;;4.31;64.79;96529.78;5018570;28;20206;-80
2023/02/16 07:44:43;;;;;;;9.03;6.37;;;;;;;4.36;64.65;96522.66;5015388;28;20193;-80
2023/02/16 07:47:08;;;;;;;10.83;7.17;;;;;;;4.39;64.82;96530.19;5001019;28;20198;-80
2023/02/16 07:49:33;;;;;;;12.17;7.90;;;;;;;4.46;64.88;96528.94;5001057;28;20231;-80
2023/02/16 07:51:59;;;;;;;10.97;7.80;;;;;;;4.61;64.16;96528.06;5006731;28;20190;-80
2023/02/16 07:54:24;;;;;;;10.97;6.70;;;;;;;4.75;63.29;96525.53;5029521;28;20218;-81
2023/02/16 07:56:49;;;;;;;12.50;7.60;;;;;;;4.87;62.66;96518.84;5011188;28;20243;-80
2023/02/16 07:59:15;;;;;;;12.33;7.30;;;;;;;5.01;62.41;96526.59;5005136;28;20195;-80
2023/02/16 08:01:41;;;;;;;11.73;6.80;;;;;;;5.10;62.10;96532.94;5003938;28;20635;-80
2023/02/16 08:04:06;;;;;;;10.53;6.97;;;;;;;5.22;61.97;96534.00;5012336;28;20221;-80
2023/02/16 08:06:34;;;;;;;13.63;6.83;;;;;;;5.33;61.39;96537.56;4999688;28;20201;-79
2023/02/16 08:08:59;;;;;;;9.03;6.87;;;;;;;5.48;60.75;96534.97;5005801;28;20197;-80
2023/02/16 08:11:24;;;;;;;12.93;7.80;;;;;;;5.61;60.58;96529.00;5015889;28;20190;-79
2023/02/16 08:13:50;;;;;;;8.67;6.20;;;;;;;5.69;60.16;96526.78;5014572;28;20206;-80
2023/02/16 08:16:21;;;;;;;8.03;6.07;;;;;;;5.78;59.93;96530.56;5025235;28;20187;-79
2023/02/16 08:18:47;;;;;;;9.77;6.63;;;;;;;5.79;59.63;96532.22;5020290;28;20271;-80
2023/02/16 08:21:17;;;;;;;8.57;5.80;;;;;;;5.86;59.80;96535.25;4998136;28;20246;-79
2023/02/16 08:23:46;;;;;;;7.50;5.40;;;;;;;5.88;59.28;96534.22;5017225;28;20326;-80
2023/02/16 08:26:15;;;;;;;8.57;5.83;;;;;;;5.96;59.35;96542.34;5022081;28;20207;-80
2023/02/16 08:28:48;;;;;;;10.23;5.53;;;;;;;6.00;60.83;96527.50;5018487;28;20274;-80
2023/02/16 08:31:15;;;;;;;8.87;5.67;;;;;;;6.10;60.56;96538.91;5013764;28;20186;-80
2023/02/16 08:33:41;;;;;;;8.97;6.10;;;;;;;6.11;60.33;96543.16;5003503;28;20225;-79
2023/02/16 08:36:10;;;;;;;8.80;5.20;;;;;;;6.11;60.65;96542.31;5008672;28;20190;-80
2023/02/16 08:38:35;;;;;;;9.50;6.27;;;;;;;6.16;60.62;96548.81;5013843;28;20584;-79
2023/02/16 08:41:01;;;;;;;19.23;10.63;;;;;;;6.25;59.36;96539.69;5028758;28;20247;-79
2023/02/16 08:43:27;;;;;;;13.33;7.20;;;;;;;6.37;58.88;96535.53;5004695;28;20225;-80
2023/02/16 08:45:52;;;;;;;11.80;6.50;;;;;;;6.52;58.20;96543.09;5007851;28;20256;-80
2023/02/16 08:48:18;;;;;;;8.50;6.40;;;;;;;6.65;57.94;96544.91;5003093;28;20244;-80
2023/02/16 08:50:45;;;;;;;9.90;6.40;;;;;;;6.71;58.62;96541.91;5003356;28;20195;-80
2023/02/16 08:53:12;;;;;;;11.03;7.10;;;;;;;6.82;58.25;96540.28;5011549;28;20643;-80
2023/02/16 08:55:38;;;;;;;9.93;6.33;;;;;;;6.89;57.90;96545.03;5013640;28;20705;-80
2023/02/16 08:58:03;;;;;;;10.60;6.20;;;;;;;7.02;57.79;96549.31;5018382;28;20182;-80
2023/02/16 09:00:34;;;;;;;11.03;7.20;;;;;;;7.05;57.17;96546.50;5021865;28;20270;-79
2023/02/16 09:03:00;;;;;;;11.17;6.77;;;;;;;7.14;57.06;96546.81;5029120;28;20218;-80
2023/02/16 09:05:27;;;;;;;11.10;7.97;;;;;;;7.19;57.06;96548.19;5013402;28;20233;-80
2023/02/16 09:07:52;;;;;;;11.87;8.37;;;;;;;7.30;57.16;96557.78;5024284;28;20191;-80
2023/02/16 09:10:18;;;;;;;13.10;8.90;;;;;;;7.31;56.96;96546.53;5017772;28;20553;-78
2023/02/16 09:12:47;;;;;;;12.23;8.20;;;;;;;7.45;56.55;96555.94;5012693;28;20233;-79
2023/02/16 09:15:13;;;;;;;11.13;8.10;;;;;;;7.57;55.82;96555.94;4999848;28;20282;-79
2023/02/16 09:17:38;;;;;;;13.37;7.43;;;;;;;7.62;55.84;96556.44;5013829;28;20225;-79
2023/02/16 09:20:04;;;;;;;11.60;7.87;;;;;;;7.63;56.07;96550.34;5028816;28;20195;-79
2023/02/16 09:22:30;;;;;;;9.60;7.43;;;;;;;7.76;55.96;96557.25;5013024;28;20207;-78
2023/02/16 09:24:55;;;;;;;11.27;7.80;;;;;;;7.79;55.21;96554.47;5023790;28;20258;-80
2023/02/16 09:27:21;;;;;;;14.70;8.97;;;;;;;7.86;55.49;96548.78;5001521;28;20182;-79
2023/02/16 09:29:46;;;;;;;10.87;7.80;;;;;;;7.91;55.77;96558.78;5012561;28;20202;-78
2023/02/16 09:32:11;;;;;;;13.43;7.50;;;;;;;8.02;54.89;96551.09;5016796;28;20224;-78
2023/02/16 09:34:37;;;;;;;8.80;6.80;;;;;;;8.13;55.71;96551.19;5021366;28;20696;-79
2023/02/16 09:37:02;;;;;;;9.50;7.97;;;;;;;8.27;54.61;96551.97;5010125;28;20197;-78
2023/02/16 09:39:28;;;;;;;10.37;7.83;;;;;;;8.32;54.87;96552.47;5012286;28;20189;-79
2023/02/16 09:42:34;;;;;;;9.03;7.17;;;;;;;8.58;54.83;96548.06;5023512;28;20210;-79
2023/02/16 09:45:10;;;;;;;9.63;7.80;;;;;;;8.55;54.66;96541.31;4996656;28;20198;-78
2023/02/16 09:47:38;;;;;;;12.43;8.80;;;;;;;8.72;54.67;96540.91;4996290;28;20887;-80
2023/02/16 09:50:14;;;;;;;14.43;9.97;;;;;;;8.67;54.06;96549.97;5007545;28;20289;-79
2023/02/16 09:53:05;;;;;;;14.03;9.50;;;;;;;8.79;53.87;96544.72;5012974;28;20620;-79
2023/02/16 09:55:38;;;;;;;11.30;8.63;;;;;;;8.91;53.25;96542.16;5011464;28;20227;-79
2023/02/16 09:58:13;;;;;;;12.97;8.07;;;;;;;9.11;54.00;96544.13;5010278;28;20221;-79
2023/02/16 10:00:54;;;;;;;13.23;9.07;;;;;;;9.20;54.48;96548.63;5013417;28;20210;-79
2023/02/16 10:03:40;;;;;;;13.40;9.50;;;;;;;9.06;53.82;96546.22;5010966;28;20218;-78
2023/02/16 10:06:12;;;;;;;12.30;9.50;;;;;;;8.99;53.30;96543.25;5009936;28;20273;-81
2023/02/16 10:08:44;;;;;;;13.10;9.00;;;;;;;9.04;53.11;96550.69;5029140;28;20199;-81
2023/02/16 10:14:05;;;;;;;10.83;8.47;;;;;;;9.15;53.19;96552.47;5015565;28;20664;-80
2023/02/16 10:16:37;;;;;;;16.53;10.57;;;;;;;9.32;52.72;96563.22;5015975;28;20199;-80
2023/02/16 10:19:29;;;;;;;17.13;10.93;;;;;;;9.32;53.25;96565.00;5043461;28;20198;-80
2023/02/16 10:21:57;;;;;;;18.23;11.47;;;;;;;9.47;53.05;96563.84;5057781;28;20214;-80
2023/02/16 10:24:25;;;;;;;12.07;8.93;;;;;;;9.62;51.78;96561.84;5018660;28;20288;-79
2023/02/16 10:26:56;;;;;;;7.77;6.47;;;;;;;9.66;51.57;96560.69;5018811;28;20187;-80
2023/02/16 10:29:22;;;;;;;7.47;6.57;;;;;;;9.65;51.25;96562.47;5034134;28;20182;-81
2023/02/16 10:32:03;;;;;;;9.00;6.73;;;;;;;9.74;49.59;96558.34;5020875;28;20182;-81
2023/02/16 10:34:47;;;;;;;8.80;6.93;;;;;;;9.64;50.91;96557.41;5009889;28;20205;-80
2023/02/16 10:37:16;;;;;;;7.63;6.20;;;;;;;9.81;50.30;96554.34;5032738;28;20186;-81
2023/02/16 10:40:11;;;;;;;7.07;5.73;;;;;;;9.79;49.97;96556.19;5032216;28;20197;-81
2023/02/16 10:42:42;;;;;;;9.97;5.53;;;;;;;9.93;50.30;96550.78;5026591;28;20229;-81
2023/02/16 10:45:36;;;;;;;7.93;5.60;;;;;;;10.05;48.96;96549.00;5018651;28;20194;-79
2023/02/16 10:48:01;;;;;;;5.97;4.67;;;;;;;10.06;48.39;96542.84;5034389;28;20194;-80
2023/02/16 10:50:40;;;;;;;5.80;4.70;;;;;;;10.26;48.28;96546.53;5011126;28;20198;-81
2023/02/16 10:53:16;;;;;;;6.30;4.20;;;;;;;10.31;49.00;96551.34;5004973;28;20735;-81
2023/02/16 10:55:42;;;;;;;7.17;5.07;;;;;;;10.41;48.21;96553.06;5033319;28;20255;-80
2023/02/16 10:58:15;;;;;;;6.17;4.37;;;;;;;10.54;48.46;96547.75;5011690;28;20195;-80
2023/02/16 11:00:50;;;;;;;7.33;4.67;;;;;;;10.62;49.32;96545.38;5011314;28;20289;-81
2023/02/16 11:03:18;;;;;;;7.97;4.57;;;;;;;10.72;49.11;96548.88;5029095;28;20258;-80
2023/02/16 11:05:43;;;;;;;5.47;4.70;;;;;;;10.84;49.25;96549.63;5015727;28;20190;-80
2023/02/16 11:08:13;;;;;;;6.97;4.60;;;;;;;10.82;49.83;96551.53;5008047;28;20194;-80
2023/02/16 11:10:52;;;;;;;6.60;4.77;;;;;;;10.85;50.13;96553.06;5019150;28;20230;-80
2023/02/16 11:13:33;;;;;;;6.90;5.13;;;;;;;10.94;49.91;96547.94;5015267;28;20237;-80
2023/02/16 11:16:10;;;;;;;8.30;5.33;;;;;;;11.03;50.85;96546.34;5008860;28;20222;-81
2023/02/16 11:18:40;;;;;;;5.43;4.60;;;;;;;11.04;49.94;96545.41;5031425;28;20178;-80
2023/02/16 11:21:07;;;;;;;6.30;4.60;;;;;;;11.22;49.98;96535.25;5022667;28;20533;-80
2023/02/16 11:23:43;;;;;;;6.87;4.40;;;;;;;11.01;50.92;96536.09;5014555;28;20227;-81
2023/02/16 11:26:08;;;;;;;5.87;4.00;;;;;;;11.18;50.75;96526.06;5002378;28;20206;-80
2023/02/16 11:28:40;;;;;;;7.30;5.47;;;;;;;11.16;50.50;96528.00;5029846;28;20187;-81
2023/02/16 11:31:14;;;;;;;6.60;4.67;;;;;;;11.38;49.61;96525.22;5016414;28;20195;-81
2023/02/16 11:33:41;;;;;;;6.27;4.60;;;;;;;11.46;49.72;96528.00;5024635;28;20199;-81
2023/02/16 11:36:31;;;;;;;8.77;4.30;;;;;;;11.60;49.30;96525.09;5013928;28;20184;-81
2023/02/16 11:39:18;;;;;;;6.23;4.27;;;;;;;11.75;48.28;96529.91;5015149;28;20182;-80
2023/02/16 11:41:48;;;;;;;7.03;4.10;;;;;;;11.90;49.05;96513.84;5025596;28;20175;-80
2023/02/16 11:44:38;;;;;;;5.40;3.80;;;;;;;11.97;49.13;96527.16;5027811;28;20229;-81
2023/02/16 11:47:20;;;;;;;6.53;4.50;;;;;;;11.91;47.75;96517.28;5011166;28;20201;-80
2023/02/16 11:49:46;;;;;;;4.70;3.80;;;;;;;12.11;48.28;96508.59;5030536;28;20194;-80
2023/02/16 11:52:23;;;;;;;5.87;3.40;;;;;;;12.12;48.46;96509.41;5025988;28;20195;-80
2023/02/16 11:54:53;;;;;;;10.97;4.80;;;;;;;12.03;47.86;96511.03;5031095;28;20190;-80
2023/02/16 11:57:27;;;;;;;6.97;3.57;;;;;;;12.03;48.20;96505.00;5015622;28;20198;-80
2023/02/16 11:59:53;;;;;;;5.33;3.77;;;;;;;12.14;48.20;96513.50;5025994;28;20195;-80
2023/02/16 12:02:32;;;;;;;4.43;3.87;;;;;;;12.11;48.72;96510.38;5030176;28;20194;-81
2023/02/16 12:05:13;;;;;;;6.57;3.80;;;;;;;12.28;48.18;96506.25;5031607;28;20186;-80
2023/02/16 12:07:44;;;;;;;5.73;4.00;;;;;;;12.34;46.92;96503.94;5024542;28;20687;-81
2023/02/16 12:10:18;;;;;;;9.43;4.20;;;;;;;12.43;46.73;96500.53;5028150;28;20191;-80
2023/02/16 12:13:16;;;;;;;8.47;3.80;;;;;;;12.62;46.02;96489.28;5014456;28;20210;-80
2023/02/16 12:15:48;;;;;;;3.90;3.50;;;;;;;12.65;46.50;96491.66;5014212;28;20213;-80
2023/02/16 12:18:30;;;;;;;4.37;3.77;;;;;;;12.65;46.03;96489.03;5019431;28;20333;-81
2023/02/16 12:21:05;;;;;;;5.87;3.77;;;;;;;12.73;46.70;96483.97;5031524;28;20198;-81
2023/02/16 12:24:05;;;;;;;5.00;3.70;;;;;;;12.66;46.31;96471.63;5029144;28;20313;-80
2023/02/16 12:26:39;;;;;;;9.10;3.60;;;;;;;12.70;46.06;96470.38;5027171;28;20178;-80
2023/02/16 12:29:23;;;;;;;5.33;3.67;;;;;;;12.63;45.64;96464.06;5030938;28;20198;-80
2023/02/16 12:32:19;;;;;;;6.87;3.70;;;;;;;12.58;45.92;96463.66;5027443;28;20655;-80
2023/02/16 12:35:06;;;;;;;4.00;3.53;;;;;;;12.72;46.14;96471.91;5026131;28;20185;-80